sensor_id;sensor_type;location;lat;lon;timestamp;P1;durP1;ratioP1;P2;durP2;ratioP2
41629;SDS011;27322;49.488;8.480;2023-07-29T00:02:07;5.15;;;3.40;;
41629;SDS011;27322;49.488;8.480;2023-07-29T00:04:33;4.10;;;2.80;;
41629;SDS011;27322;49.488;8.480;2023-07-29T00:06:58;6.38;;;2.80;;
41629;SDS011;27322;49.488;8.480;2023-07-29T00:09:24;5.63;;;2.65;;
41629;SDS011;27322;49.488;8.480;2023-07-29T00:11:50;4.95;;;3.08;;
41629;SDS011;27322;49.488;8.480;2023-07-29T00:14:15;4.50;;;2.92;;
41629;SDS011;27322;49.488;8.480;2023-07-29T00:16:41;4.70;;;2.80;;
41629;SDS011;27322;49.488;8.480;2023-07-29T00:19:07;5.07;;;2.53;;
41629;SDS011;27322;49.488;8.480;2023-07-29T00:21:33;5.05;;;3.05;;
41629;SDS011;27322;49.488;8.480;2023-07-29T00:23:59;6.07;;;3.05;;
41629;SDS011;27322;49.488;8.480;2023-07-29T00:26:26;5.57;;;2.53;;
41629;SDS011;27322;49.488;8.480;2023-07-29T00:28:53;4.50;;;2.83;;
41629;SDS011;27322;49.488;8.480;2023-07-29T00:31:20;6.00;;;2.83;;
41629;SDS011;27322;49.488;8.480;2023-07-29T00:33:45;5.35;;;2.70;;
41629;SDS011;27322;49.488;8.480;2023-07-29T00:36:11;5.85;;;2.95;;
41629;SDS011;27322;49.488;8.480;2023-07-29T00:38:37;7.15;;;2.88;;
41629;SDS011;27322;49.488;8.480;2023-07-29T00:41:02;5.75;;;2.50;;
41629;SDS011;27322;49.488;8.480;2023-07-29T00:43:28;5.07;;;2.90;;
41629;SDS011;27322;49.488;8.480;2023-07-29T00:45:54;3.72;;;2.25;;
41629;SDS011;27322;49.488;8.480;2023-07-29T00:48:22;4.50;;;2.38;;
41629;SDS011;27322;49.488;8.480;2023-07-29T00:50:48;4.05;;;2.40;;
41629;SDS011;27322;49.488;8.480;2023-07-29T00:53:15;5.25;;;2.35;;
41629;SDS011;27322;49.488;8.480;2023-07-29T00:55:41;6.00;;;2.58;;
41629;SDS011;27322;49.488;8.480;2023-07-29T00:58:07;4.97;;;2.60;;
41629;SDS011;27322;49.488;8.480;2023-07-29T01:00:33;5.00;;;2.22;;
41629;SDS011;27322;49.488;8.480;2023-07-29T01:02:58;5.05;;;2.47;;
41629;SDS011;27322;49.488;8.480;2023-07-29T01:05:24;3.53;;;2.00;;
41629;SDS011;27322;49.488;8.480;2023-07-29T01:08:16;3.37;;;1.80;;
41629;SDS011;27322;49.488;8.480;2023-07-29T01:13:59;3.50;;;1.90;;
41629;SDS011;27322;49.488;8.480;2023-07-29T01:17:15;4.10;;;1.75;;
41629;SDS011;27322;49.488;8.480;2023-07-29T01:21:56;3.20;;;1.42;;
41629;SDS011;27322;49.488;8.480;2023-07-29T01:24:23;2.95;;;1.58;;
41629;SDS011;27322;49.488;8.480;2023-07-29T01:26:48;3.38;;;1.50;;
41629;SDS011;27322;49.488;8.480;2023-07-29T01:29:14;4.45;;;1.58;;
41629;SDS011;27322;49.488;8.480;2023-07-29T01:31:42;5.10;;;1.33;;
41629;SDS011;27322;49.488;8.480;2023-07-29T01:34:13;2.85;;;1.30;;
41629;SDS011;27322;49.488;8.480;2023-07-29T01:36:45;4.30;;;1.40;;
41629;SDS011;27322;49.488;8.480;2023-07-29T01:39:14;4.40;;;1.50;;
41629;SDS011;27322;49.488;8.480;2023-07-29T01:41:41;2.92;;;1.50;;
41629;SDS011;27322;49.488;8.480;2023-07-29T01:44:09;3.65;;;1.60;;
41629;SDS011;27322;49.488;8.480;2023-07-29T01:46:35;5.57;;;1.35;;
41629;SDS011;27322;49.488;8.480;2023-07-29T01:49:02;2.38;;;1.20;;
41629;SDS011;27322;49.488;8.480;2023-07-29T01:51:27;3.53;;;1.58;;
41629;SDS011;27322;49.488;8.480;2023-07-29T01:53:53;5.25;;;1.50;;
41629;SDS011;27322;49.488;8.480;2023-07-29T01:56:20;2.17;;;1.30;;
41629;SDS011;27322;49.488;8.480;2023-07-29T01:58:46;3.67;;;1.30;;
41629;SDS011;27322;49.488;8.480;2023-07-29T02:01:12;3.38;;;1.60;;
41629;SDS011;27322;49.488;8.480;2023-07-29T02:03:37;3.05;;;1.33;;
41629;SDS011;27322;49.488;8.480;2023-07-29T02:06:03;2.70;;;1.52;;
41629;SDS011;27322;49.488;8.480;2023-07-29T02:08:29;4.70;;;1.50;;
41629;SDS011;27322;49.488;8.480;2023-07-29T02:10:54;2.70;;;1.35;;
41629;SDS011;27322;49.488;8.480;2023-07-29T02:13:20;3.15;;;1.52;;
41629;SDS011;27322;49.488;8.480;2023-07-29T02:15:45;4.82;;;1.38;;
41629;SDS011;27322;49.488;8.480;2023-07-29T02:18:11;3.08;;;1.60;;
41629;SDS011;27322;49.488;8.480;2023-07-29T02:20:36;3.33;;;1.27;;
41629;SDS011;27322;49.488;8.480;2023-07-29T02:23:02;2.38;;;1.13;;
41629;SDS011;27322;49.488;8.480;2023-07-29T02:25:28;3.85;;;1.38;;
41629;SDS011;27322;49.488;8.480;2023-07-29T02:27:53;3.22;;;1.45;;
41629;SDS011;27322;49.488;8.480;2023-07-29T02:30:20;3.70;;;1.50;;
41629;SDS011;27322;49.488;8.480;2023-07-29T02:32:46;3.63;;;1.63;;
41629;SDS011;27322;49.488;8.480;2023-07-29T02:35:11;2.63;;;1.38;;
41629;SDS011;27322;49.488;8.480;2023-07-29T02:37:37;3.15;;;1.38;;
41629;SDS011;27322;49.488;8.480;2023-07-29T02:40:03;2.88;;;1.33;;
41629;SDS011;27322;49.488;8.480;2023-07-29T02:42:28;2.63;;;1.40;;
41629;SDS011;27322;49.488;8.480;2023-07-29T02:44:54;2.42;;;1.40;;
41629;SDS011;27322;49.488;8.480;2023-07-29T02:47:20;2.65;;;1.40;;
41629;SDS011;27322;49.488;8.480;2023-07-29T02:49:45;3.53;;;1.48;;
41629;SDS011;27322;49.488;8.480;2023-07-29T02:52:11;4.63;;;1.45;;
41629;SDS011;27322;49.488;8.480;2023-07-29T02:54:36;4.10;;;1.50;;
41629;SDS011;27322;49.488;8.480;2023-07-29T02:57:02;3.85;;;1.42;;
41629;SDS011;27322;49.488;8.480;2023-07-29T02:59:28;5.28;;;1.40;;
41629;SDS011;27322;49.488;8.480;2023-07-29T03:01:53;3.22;;;1.40;;
41629;SDS011;27322;49.488;8.480;2023-07-29T03:04:19;2.50;;;1.38;;
41629;SDS011;27322;49.488;8.480;2023-07-29T03:06:46;3.20;;;1.30;;
41629;SDS011;27322;49.488;8.480;2023-07-29T03:09:13;4.55;;;1.63;;
41629;SDS011;27322;49.488;8.480;2023-07-29T03:11:39;3.30;;;1.45;;
41629;SDS011;27322;49.488;8.480;2023-07-29T03:14:05;3.00;;;1.67;;
41629;SDS011;27322;49.488;8.480;2023-07-29T03:16:30;2.88;;;1.67;;
41629;SDS011;27322;49.488;8.480;2023-07-29T03:18:56;2.88;;;1.60;;
41629;SDS011;27322;49.488;8.480;2023-07-29T03:21:22;2.67;;;1.75;;
41629;SDS011;27322;49.488;8.480;2023-07-29T03:23:48;6.10;;;2.08;;
41629;SDS011;27322;49.488;8.480;2023-07-29T03:26:13;5.57;;;1.90;;
41629;SDS011;27322;49.488;8.480;2023-07-29T03:28:42;3.55;;;1.90;;
41629;SDS011;27322;49.488;8.480;2023-07-29T03:31:08;3.60;;;1.90;;
41629;SDS011;27322;49.488;8.480;2023-07-29T03:33:34;4.95;;;1.80;;
41629;SDS011;27322;49.488;8.480;2023-07-29T03:35:59;3.42;;;1.80;;
41629;SDS011;27322;49.488;8.480;2023-07-29T03:38:25;3.80;;;1.80;;
41629;SDS011;27322;49.488;8.480;2023-07-29T03:40:52;3.05;;;2.00;;
41629;SDS011;27322;49.488;8.480;2023-07-29T03:43:18;3.53;;;1.73;;
41629;SDS011;27322;49.488;8.480;2023-07-29T03:45:44;3.15;;;1.90;;
41629;SDS011;27322;49.488;8.480;2023-07-29T03:48:10;3.55;;;1.73;;
41629;SDS011;27322;49.488;8.480;2023-07-29T03:50:35;3.20;;;1.83;;
41629;SDS011;27322;49.488;8.480;2023-07-29T03:53:02;4.05;;;1.90;;
41629;SDS011;27322;49.488;8.480;2023-07-29T03:55:29;4.68;;;1.60;;
41629;SDS011;27322;49.488;8.480;2023-07-29T03:57:55;6.47;;;2.05;;
41629;SDS011;27322;49.488;8.480;2023-07-29T04:00:25;5.00;;;2.00;;
41629;SDS011;27322;49.488;8.480;2023-07-29T04:02:51;4.03;;;1.90;;
41629;SDS011;27322;49.488;8.480;2023-07-29T04:05:16;4.05;;;1.70;;
41629;SDS011;27322;49.488;8.480;2023-07-29T04:07:42;4.35;;;1.40;;
41629;SDS011;27322;49.488;8.480;2023-07-29T04:10:08;3.60;;;1.80;;
41629;SDS011;27322;49.488;8.480;2023-07-29T04:12:34;4.35;;;1.92;;
41629;SDS011;27322;49.488;8.480;2023-07-29T04:15:00;3.72;;;1.90;;
41629;SDS011;27322;49.488;8.480;2023-07-29T04:17:26;4.47;;;1.70;;
41629;SDS011;27322;49.488;8.480;2023-07-29T04:19:51;3.90;;;1.80;;
41629;SDS011;27322;49.488;8.480;2023-07-29T04:22:17;4.70;;;2.22;;
41629;SDS011;27322;49.488;8.480;2023-07-29T04:24:42;3.78;;;1.90;;
41629;SDS011;27322;49.488;8.480;2023-07-29T04:27:08;4.85;;;1.95;;
41629;SDS011;27322;49.488;8.480;2023-07-29T04:29:34;5.40;;;2.10;;
41629;SDS011;27322;49.488;8.480;2023-07-29T04:32:01;3.67;;;1.92;;
41629;SDS011;27322;49.488;8.480;2023-07-29T04:34:30;3.70;;;1.77;;
41629;SDS011;27322;49.488;8.480;2023-07-29T04:36:56;3.30;;;1.80;;
41629;SDS011;27322;49.488;8.480;2023-07-29T04:39:21;3.38;;;1.80;;
41629;SDS011;27322;49.488;8.480;2023-07-29T04:41:47;3.55;;;2.00;;
41629;SDS011;27322;49.488;8.480;2023-07-29T04:44:12;5.25;;;1.98;;
41629;SDS011;27322;49.488;8.480;2023-07-29T04:46:38;5.18;;;1.90;;
41629;SDS011;27322;49.488;8.480;2023-07-29T04:49:04;3.42;;;1.88;;
41629;SDS011;27322;49.488;8.480;2023-07-29T04:51:29;3.80;;;2.10;;
41629;SDS011;27322;49.488;8.480;2023-07-29T04:53:56;4.70;;;2.10;;
41629;SDS011;27322;49.488;8.480;2023-07-29T04:56:22;4.72;;;2.17;;
41629;SDS011;27322;49.488;8.480;2023-07-29T04:58:48;4.03;;;2.40;;
41629;SDS011;27322;49.488;8.480;2023-07-29T05:01:14;4.85;;;2.10;;
41629;SDS011;27322;49.488;8.480;2023-07-29T05:03:39;4.25;;;2.22;;
41629;SDS011;27322;49.488;8.480;2023-07-29T05:06:05;5.40;;;2.75;;
41629;SDS011;27322;49.488;8.480;2023-07-29T05:08:31;5.32;;;2.50;;
41629;SDS011;27322;49.488;8.480;2023-07-29T05:10:57;5.35;;;2.60;;
41629;SDS011;27322;49.488;8.480;2023-07-29T05:13:23;4.85;;;2.47;;
41629;SDS011;27322;49.488;8.480;2023-07-29T05:15:48;4.43;;;2.42;;
41629;SDS011;27322;49.488;8.480;2023-07-29T05:18:15;4.43;;;2.30;;
41629;SDS011;27322;49.488;8.480;2023-07-29T05:20:41;4.72;;;2.30;;
41629;SDS011;27322;49.488;8.480;2023-07-29T05:23:07;5.07;;;2.42;;
41629;SDS011;27322;49.488;8.480;2023-07-29T05:25:33;4.05;;;2.20;;
41629;SDS011;27322;49.488;8.480;2023-07-29T05:28:01;4.88;;;2.50;;
41629;SDS011;27322;49.488;8.480;2023-07-29T05:30:28;3.13;;;1.98;;
41629;SDS011;27322;49.488;8.480;2023-07-29T05:32:56;4.30;;;2.08;;
41629;SDS011;27322;49.488;8.480;2023-07-29T05:35:22;3.97;;;2.00;;
41629;SDS011;27322;49.488;8.480;2023-07-29T05:37:48;4.15;;;2.03;;
41629;SDS011;27322;49.488;8.480;2023-07-29T05:40:13;3.78;;;2.00;;
41629;SDS011;27322;49.488;8.480;2023-07-29T05:42:39;3.50;;;1.80;;
41629;SDS011;27322;49.488;8.480;2023-07-29T05:45:05;4.82;;;1.98;;
41629;SDS011;27322;49.488;8.480;2023-07-29T05:47:31;4.30;;;1.70;;
41629;SDS011;27322;49.488;8.480;2023-07-29T05:49:57;3.67;;;1.90;;
41629;SDS011;27322;49.488;8.480;2023-07-29T05:52:22;3.03;;;1.40;;
41629;SDS011;27322;49.488;8.480;2023-07-29T05:54:48;4.05;;;1.70;;
41629;SDS011;27322;49.488;8.480;2023-07-29T05:57:14;3.65;;;1.60;;
41629;SDS011;27322;49.488;8.480;2023-07-29T05:59:39;3.70;;;1.58;;
41629;SDS011;27322;49.488;8.480;2023-07-29T06:02:05;5.05;;;1.60;;
41629;SDS011;27322;49.488;8.480;2023-07-29T06:04:31;3.38;;;1.50;;
41629;SDS011;27322;49.488;8.480;2023-07-29T06:06:56;3.92;;;1.50;;
41629;SDS011;27322;49.488;8.480;2023-07-29T06:09:22;3.92;;;1.48;;
41629;SDS011;27322;49.488;8.480;2023-07-29T06:11:48;3.38;;;1.50;;
41629;SDS011;27322;49.488;8.480;2023-07-29T06:14:14;3.35;;;1.50;;
41629;SDS011;27322;49.488;8.480;2023-07-29T06:16:40;2.53;;;1.27;;
41629;SDS011;27322;49.488;8.480;2023-07-29T06:19:05;3.00;;;1.40;;
41629;SDS011;27322;49.488;8.480;2023-07-29T06:21:33;3.15;;;1.40;;
41629;SDS011;27322;49.488;8.480;2023-07-29T06:23:59;2.53;;;1.30;;
41629;SDS011;27322;49.488;8.480;2023-07-29T06:26:25;3.63;;;1.42;;
41629;SDS011;27322;49.488;8.480;2023-07-29T06:28:50;2.97;;;1.40;;
41629;SDS011;27322;49.488;8.480;2023-07-29T06:31:16;2.83;;;1.52;;
41629;SDS011;27322;49.488;8.480;2023-07-29T06:33:42;2.65;;;1.63;;
41629;SDS011;27322;49.488;8.480;2023-07-29T06:36:07;2.92;;;1.60;;
41629;SDS011;27322;49.488;8.480;2023-07-29T06:38:33;2.90;;;1.77;;
41629;SDS011;27322;49.488;8.480;2023-07-29T06:40:59;4.88;;;2.17;;
41629;SDS011;27322;49.488;8.480;2023-07-29T06:43:24;5.20;;;1.88;;
41629;SDS011;27322;49.488;8.480;2023-07-29T06:45:50;3.97;;;2.00;;
41629;SDS011;27322;49.488;8.480;2023-07-29T06:48:16;3.70;;;1.92;;
41629;SDS011;27322;49.488;8.480;2023-07-29T06:50:43;4.13;;;2.00;;
41629;SDS011;27322;49.488;8.480;2023-07-29T06:53:09;4.45;;;2.17;;
41629;SDS011;27322;49.488;8.480;2023-07-29T06:55:34;6.68;;;2.20;;
41629;SDS011;27322;49.488;8.480;2023-07-29T06:58:00;3.70;;;2.30;;
41629;SDS011;27322;49.488;8.480;2023-07-29T07:00:26;4.43;;;2.30;;
41629;SDS011;27322;49.488;8.480;2023-07-29T07:02:51;4.35;;;2.35;;
41629;SDS011;27322;49.488;8.480;2023-07-29T07:05:17;4.90;;;2.13;;
41629;SDS011;27322;49.488;8.480;2023-07-29T07:07:42;4.28;;;2.38;;
41629;SDS011;27322;49.488;8.480;2023-07-29T07:10:08;6.40;;;3.47;;
41629;SDS011;27322;49.488;8.480;2023-07-29T07:12:34;5.80;;;2.70;;
41629;SDS011;27322;49.488;8.480;2023-07-29T07:15:00;3.92;;;2.30;;
41629;SDS011;27322;49.488;8.480;2023-07-29T07:17:26;3.75;;;2.40;;
41629;SDS011;27322;49.488;8.480;2023-07-29T07:19:51;4.03;;;2.55;;
41629;SDS011;27322;49.488;8.480;2023-07-29T07:22:17;4.85;;;2.40;;
41629;SDS011;27322;49.488;8.480;2023-07-29T07:24:42;4.38;;;2.53;;
41629;SDS011;27322;49.488;8.480;2023-07-29T07:27:09;4.80;;;2.42;;
41629;SDS011;27322;49.488;8.480;2023-07-29T07:29:34;4.00;;;2.47;;
41629;SDS011;27322;49.488;8.480;2023-07-29T07:32:00;7.63;;;2.20;;
41629;SDS011;27322;49.488;8.480;2023-07-29T07:34:25;10.27;;;2.60;;
41629;SDS011;27322;49.488;8.480;2023-07-29T07:36:51;4.40;;;2.42;;
41629;SDS011;27322;49.488;8.480;2023-07-29T07:39:17;5.60;;;2.40;;
41629;SDS011;27322;49.488;8.480;2023-07-29T07:41:42;5.72;;;2.50;;
41629;SDS011;27322;49.488;8.480;2023-07-29T07:44:08;5.15;;;2.50;;
41629;SDS011;27322;49.488;8.480;2023-07-29T07:46:34;5.35;;;2.60;;
41629;SDS011;27322;49.488;8.480;2023-07-29T07:48:59;5.45;;;2.67;;
41629;SDS011;27322;49.488;8.480;2023-07-29T07:51:25;4.13;;;2.40;;
41629;SDS011;27322;49.488;8.480;2023-07-29T07:53:50;5.82;;;2.70;;
41629;SDS011;27322;49.488;8.480;2023-07-29T07:56:16;4.65;;;3.30;;
41629;SDS011;27322;49.488;8.480;2023-07-29T07:58:41;4.40;;;2.40;;
41629;SDS011;27322;49.488;8.480;2023-07-29T08:01:08;3.78;;;2.42;;
41629;SDS011;27322;49.488;8.480;2023-07-29T08:03:34;4.25;;;2.15;;
41629;SDS011;27322;49.488;8.480;2023-07-29T08:06:01;5.50;;;2.90;;
41629;SDS011;27322;49.488;8.480;2023-07-29T08:08:27;7.35;;;3.03;;
41629;SDS011;27322;49.488;8.480;2023-07-29T08:10:53;10.23;;;3.50;;
41629;SDS011;27322;49.488;8.480;2023-07-29T08:13:21;6.30;;;3.40;;
41629;SDS011;27322;49.488;8.480;2023-07-29T08:15:47;9.63;;;3.40;;
41629;SDS011;27322;49.488;8.480;2023-07-29T08:18:14;5.55;;;3.00;;
41629;SDS011;27322;49.488;8.480;2023-07-29T08:20:40;4.50;;;2.80;;
41629;SDS011;27322;49.488;8.480;2023-07-29T08:23:06;3.83;;;2.28;;
41629;SDS011;27322;49.488;8.480;2023-07-29T08:25:31;6.03;;;2.22;;
41629;SDS011;27322;49.488;8.480;2023-07-29T08:27:57;4.10;;;2.10;;
41629;SDS011;27322;49.488;8.480;2023-07-29T08:30:22;3.25;;;1.98;;
41629;SDS011;27322;49.488;8.480;2023-07-29T08:32:48;4.57;;;1.90;;
41629;SDS011;27322;49.488;8.480;2023-07-29T08:35:14;3.83;;;2.17;;
41629;SDS011;27322;49.488;8.480;2023-07-29T08:37:39;3.25;;;2.08;;
41629;SDS011;27322;49.488;8.480;2023-07-29T08:40:05;4.30;;;2.70;;
41629;SDS011;27322;49.488;8.480;2023-07-29T08:42:32;3.70;;;2.70;;
41629;SDS011;27322;49.488;8.480;2023-07-29T08:45:00;5.85;;;3.20;;
41629;SDS011;27322;49.488;8.480;2023-07-29T08:47:31;5.45;;;3.42;;
41629;SDS011;27322;49.488;8.480;2023-07-29T08:49:57;5.82;;;4.22;;
41629;SDS011;27322;49.488;8.480;2023-07-29T08:52:24;5.78;;;4.07;;
41629;SDS011;27322;49.488;8.480;2023-07-29T08:54:50;6.10;;;3.70;;
41629;SDS011;27322;49.488;8.480;2023-07-29T08:57:17;5.05;;;2.15;;
41629;SDS011;27322;49.488;8.480;2023-07-29T08:59:45;3.63;;;2.15;;
41629;SDS011;27322;49.488;8.480;2023-07-29T09:02:11;2.60;;;1.70;;
41629;SDS011;27322;49.488;8.480;2023-07-29T09:04:36;5.68;;;1.98;;
41629;SDS011;27322;49.488;8.480;2023-07-29T09:07:02;3.50;;;2.22;;
41629;SDS011;27322;49.488;8.480;2023-07-29T09:09:29;3.72;;;2.40;;
41629;SDS011;27322;49.488;8.480;2023-07-29T09:11:55;3.05;;;2.25;;
41629;SDS011;27322;49.488;8.480;2023-07-29T09:14:21;5.50;;;2.28;;
41629;SDS011;27322;49.488;8.480;2023-07-29T09:16:48;4.38;;;2.30;;
41629;SDS011;27322;49.488;8.480;2023-07-29T09:19:14;3.80;;;2.38;;
41629;SDS011;27322;49.488;8.480;2023-07-29T09:21:39;4.68;;;2.53;;
41629;SDS011;27322;49.488;8.480;2023-07-29T09:24:05;4.18;;;2.35;;
41629;SDS011;27322;49.488;8.480;2023-07-29T09:26:32;3.65;;;2.60;;
41629;SDS011;27322;49.488;8.480;2023-07-29T09:28:58;4.85;;;2.50;;
41629;SDS011;27322;49.488;8.480;2023-07-29T09:31:25;5.20;;;2.58;;
41629;SDS011;27322;49.488;8.480;2023-07-29T09:33:59;3.72;;;2.50;;
41629;SDS011;27322;49.488;8.480;2023-07-29T09:36:26;3.45;;;2.28;;
41629;SDS011;27322;49.488;8.480;2023-07-29T09:38:56;3.67;;;2.47;;
41629;SDS011;27322;49.488;8.480;2023-07-29T09:41:25;4.60;;;2.33;;
41629;SDS011;27322;49.488;8.480;2023-07-29T09:43:56;4.75;;;2.13;;
41629;SDS011;27322;49.488;8.480;2023-07-29T09:46:23;4.10;;;2.15;;
41629;SDS011;27322;49.488;8.480;2023-07-29T09:48:52;4.63;;;2.38;;
41629;SDS011;27322;49.488;8.480;2023-07-29T09:51:21;3.17;;;2.10;;
41629;SDS011;27322;49.488;8.480;2023-07-29T09:53:47;3.45;;;2.03;;
41629;SDS011;27322;49.488;8.480;2023-07-29T09:56:15;4.43;;;1.60;;
41629;SDS011;27322;49.488;8.480;2023-07-29T09:58:42;3.30;;;1.60;;
41629;SDS011;27322;49.488;8.480;2023-07-29T10:01:10;2.40;;;1.50;;
41629;SDS011;27322;49.488;8.480;2023-07-29T10:03:36;2.83;;;1.58;;
41629;SDS011;27322;49.488;8.480;2023-07-29T10:06:03;3.38;;;1.80;;
41629;SDS011;27322;49.488;8.480;2023-07-29T10:08:30;2.38;;;1.40;;
41629;SDS011;27322;49.488;8.480;2023-07-29T10:10:59;2.92;;;1.67;;
41629;SDS011;27322;49.488;8.480;2023-07-29T10:13:25;4.15;;;1.38;;
41629;SDS011;27322;49.488;8.480;2023-07-29T10:15:53;2.65;;;1.42;;
41629;SDS011;27322;49.488;8.480;2023-07-29T10:18:21;2.78;;;1.50;;
41629;SDS011;27322;49.488;8.480;2023-07-29T10:20:49;3.28;;;1.50;;
41629;SDS011;27322;49.488;8.480;2023-07-29T10:23:25;3.10;;;1.58;;
41629;SDS011;27322;49.488;8.480;2023-07-29T10:26:02;4.68;;;1.95;;
41629;SDS011;27322;49.488;8.480;2023-07-29T10:28:30;2.42;;;1.30;;
41629;SDS011;27322;49.488;8.480;2023-07-29T10:30:57;3.20;;;1.48;;
41629;SDS011;27322;49.488;8.480;2023-07-29T10:33:23;2.28;;;1.33;;
41629;SDS011;27322;49.488;8.480;2023-07-29T10:35:49;2.42;;;1.20;;
41629;SDS011;27322;49.488;8.480;2023-07-29T10:38:16;2.95;;;1.48;;
41629;SDS011;27322;49.488;8.480;2023-07-29T10:40:46;2.85;;;1.40;;
41629;SDS011;27322;49.488;8.480;2023-07-29T10:43:18;4.72;;;1.60;;
41629;SDS011;27322;49.488;8.480;2023-07-29T10:45:48;6.80;;;1.67;;
41629;SDS011;27322;49.488;8.480;2023-07-29T10:54:23;2.38;;;1.20;;
41629;SDS011;27322;49.488;8.480;2023-07-29T10:56:43;2.88;;;1.17;;
41629;SDS011;27322;49.488;8.480;2023-07-29T11:01:41;2.50;;;1.13;;
41629;SDS011;27322;49.488;8.480;2023-07-29T11:09:51;3.65;;;1.20;;
41629;SDS011;27322;49.488;8.480;2023-07-29T11:15:04;2.50;;;1.30;;
41629;SDS011;27322;49.488;8.480;2023-07-29T11:20:18;3.70;;;1.10;;
41629;SDS011;27322;49.488;8.480;2023-07-29T11:22:45;4.22;;;1.15;;
41629;SDS011;27322;49.488;8.480;2023-07-29T11:25:12;2.60;;;1.27;;
41629;SDS011;27322;49.488;8.480;2023-07-29T11:27:39;2.95;;;1.33;;
41629;SDS011;27322;49.488;8.480;2023-07-29T11:30:05;3.70;;;1.30;;
41629;SDS011;27322;49.488;8.480;2023-07-29T11:32:35;3.38;;;1.08;;
41629;SDS011;27322;49.488;8.480;2023-07-29T11:35:06;1.95;;;0.98;;
41629;SDS011;27322;49.488;8.480;2023-07-29T11:37:34;3.58;;;0.85;;
41629;SDS011;27322;49.488;8.480;2023-07-29T11:40:00;2.72;;;1.15;;
41629;SDS011;27322;49.488;8.480;2023-07-29T11:42:27;3.88;;;1.10;;
41629;SDS011;27322;49.488;8.480;2023-07-29T11:44:53;3.15;;;1.00;;
41629;SDS011;27322;49.488;8.480;2023-07-29T11:47:21;3.03;;;1.10;;
41629;SDS011;27322;49.488;8.480;2023-07-29T11:49:46;3.33;;;1.20;;
41629;SDS011;27322;49.488;8.480;2023-07-29T11:52:12;2.75;;;1.17;;
41629;SDS011;27322;49.488;8.480;2023-07-29T11:54:38;3.83;;;1.08;;
41629;SDS011;27322;49.488;8.480;2023-07-29T11:57:08;2.50;;;1.00;;
41629;SDS011;27322;49.488;8.480;2023-07-29T11:59:34;4.55;;;1.20;;
41629;SDS011;27322;49.488;8.480;2023-07-29T12:02:01;2.97;;;0.98;;
41629;SDS011;27322;49.488;8.480;2023-07-29T12:04:30;2.13;;;0.90;;
41629;SDS011;27322;49.488;8.480;2023-07-29T12:06:57;1.90;;;1.00;;
41629;SDS011;27322;49.488;8.480;2023-07-29T12:09:23;1.98;;;0.90;;
41629;SDS011;27322;49.488;8.480;2023-07-29T12:11:49;2.83;;;1.00;;
41629;SDS011;27322;49.488;8.480;2023-07-29T12:14:17;3.22;;;1.17;;
41629;SDS011;27322;49.488;8.480;2023-07-29T12:16:43;3.30;;;1.00;;
41629;SDS011;27322;49.488;8.480;2023-07-29T12:19:11;1.95;;;0.90;;
41629;SDS011;27322;49.488;8.480;2023-07-29T12:21:38;2.15;;;1.10;;
41629;SDS011;27322;49.488;8.480;2023-07-29T12:24:03;3.65;;;1.10;;
41629;SDS011;27322;49.488;8.480;2023-07-29T12:26:29;1.98;;;1.05;;
41629;SDS011;27322;49.488;8.480;2023-07-29T12:28:55;2.17;;;1.02;;
41629;SDS011;27322;49.488;8.480;2023-07-29T12:31:21;4.95;;;1.25;;
41629;SDS011;27322;49.488;8.480;2023-07-29T12:33:55;2.38;;;1.27;;
41629;SDS011;27322;49.488;8.480;2023-07-29T12:36:22;1.98;;;1.00;;
41629;SDS011;27322;49.488;8.480;2023-07-29T12:38:52;1.60;;;0.90;;
41629;SDS011;27322;49.488;8.480;2023-07-29T12:41:17;2.20;;;0.90;;
41629;SDS011;27322;49.488;8.480;2023-07-29T12:43:43;1.80;;;1.00;;
41629;SDS011;27322;49.488;8.480;2023-07-29T12:46:08;1.88;;;1.00;;
41629;SDS011;27322;49.488;8.480;2023-07-29T12:48:34;2.92;;;1.10;;
41629;SDS011;27322;49.488;8.480;2023-07-29T12:50:59;3.28;;;0.90;;
41629;SDS011;27322;49.488;8.480;2023-07-29T12:53:25;2.13;;;1.00;;
41629;SDS011;27322;49.488;8.480;2023-07-29T12:55:50;2.33;;;1.10;;
41629;SDS011;27322;49.488;8.480;2023-07-29T12:58:16;4.25;;;1.10;;
41629;SDS011;27322;49.488;8.480;2023-07-29T13:00:42;1.77;;;0.95;;
41629;SDS011;27322;49.488;8.480;2023-07-29T13:03:07;1.95;;;1.10;;
41629;SDS011;27322;49.488;8.480;2023-07-29T13:05:33;2.55;;;1.10;;
41629;SDS011;27322;49.488;8.480;2023-07-29T13:07:58;3.08;;;1.00;;
41629;SDS011;27322;49.488;8.480;2023-07-29T13:10:25;3.30;;;1.10;;
41629;SDS011;27322;49.488;8.480;2023-07-29T13:12:50;2.92;;;1.00;;
41629;SDS011;27322;49.488;8.480;2023-07-29T13:15:16;5.50;;;2.63;;
41629;SDS011;27322;49.488;8.480;2023-07-29T13:17:41;3.05;;;1.50;;
41629;SDS011;27322;49.488;8.480;2023-07-29T13:20:07;2.67;;;1.00;;
41629;SDS011;27322;49.488;8.480;2023-07-29T13:22:33;1.80;;;1.00;;
41629;SDS011;27322;49.488;8.480;2023-07-29T13:24:59;2.42;;;1.10;;
41629;SDS011;27322;49.488;8.480;2023-07-29T13:27:24;2.22;;;1.00;;
41629;SDS011;27322;49.488;8.480;2023-07-29T13:29:51;2.58;;;1.00;;
41629;SDS011;27322;49.488;8.480;2023-07-29T13:32:17;3.35;;;1.00;;
41629;SDS011;27322;49.488;8.480;2023-07-29T13:34:42;3.90;;;1.00;;
41629;SDS011;27322;49.488;8.480;2023-07-29T13:37:08;2.25;;;0.88;;
41629;SDS011;27322;49.488;8.480;2023-07-29T13:39:33;2.67;;;0.90;;
41629;SDS011;27322;49.488;8.480;2023-07-29T13:41:59;2.33;;;1.00;;
41629;SDS011;27322;49.488;8.480;2023-07-29T13:44:25;2.17;;;1.00;;
41629;SDS011;27322;49.488;8.480;2023-07-29T13:46:50;2.25;;;1.10;;
41629;SDS011;27322;49.488;8.480;2023-07-29T13:49:16;3.20;;;1.17;;
41629;SDS011;27322;49.488;8.480;2023-07-29T13:51:42;2.78;;;0.90;;
41629;SDS011;27322;49.488;8.480;2023-07-29T13:54:07;2.55;;;1.10;;
41629;SDS011;27322;49.488;8.480;2023-07-29T13:56:33;2.47;;;1.00;;
41629;SDS011;27322;49.488;8.480;2023-07-29T13:58:59;2.20;;;1.10;;
41629;SDS011;27322;49.488;8.480;2023-07-29T14:01:24;2.03;;;1.08;;
41629;SDS011;27322;49.488;8.480;2023-07-29T14:03:50;2.65;;;1.00;;
41629;SDS011;27322;49.488;8.480;2023-07-29T14:06:15;2.20;;;0.98;;
41629;SDS011;27322;49.488;8.480;2023-07-29T14:08:41;2.20;;;1.02;;
41629;SDS011;27322;49.488;8.480;2023-07-29T14:11:07;2.53;;;1.15;;
41629;SDS011;27322;49.488;8.480;2023-07-29T14:13:32;3.60;;;0.98;;
41629;SDS011;27322;49.488;8.480;2023-07-29T14:16:00;2.65;;;1.00;;
41629;SDS011;27322;49.488;8.480;2023-07-29T14:18:27;2.13;;;1.05;;
41629;SDS011;27322;49.488;8.480;2023-07-29T14:20:53;2.08;;;1.02;;
41629;SDS011;27322;49.488;8.480;2023-07-29T14:23:18;2.17;;;1.00;;
41629;SDS011;27322;49.488;8.480;2023-07-29T14:25:44;1.58;;;0.88;;
41629;SDS011;27322;49.488;8.480;2023-07-29T14:28:09;2.60;;;1.10;;
41629;SDS011;27322;49.488;8.480;2023-07-29T14:30:35;2.13;;;1.17;;
41629;SDS011;27322;49.488;8.480;2023-07-29T14:33:02;2.40;;;1.20;;
41629;SDS011;27322;49.488;8.480;2023-07-29T14:35:28;2.30;;;1.10;;
41629;SDS011;27322;49.488;8.480;2023-07-29T14:37:53;1.75;;;1.00;;
41629;SDS011;27322;49.488;8.480;2023-07-29T14:40:19;2.92;;;1.00;;
41629;SDS011;27322;49.488;8.480;2023-07-29T14:42:44;4.05;;;1.95;;
41629;SDS011;27322;49.488;8.480;2023-07-29T14:45:10;3.00;;;1.25;;
41629;SDS011;27322;49.488;8.480;2023-07-29T14:47:36;2.05;;;1.00;;
41629;SDS011;27322;49.488;8.480;2023-07-29T14:50:01;3.53;;;1.20;;
41629;SDS011;27322;49.488;8.480;2023-07-29T14:52:27;3.53;;;1.00;;
41629;SDS011;27322;49.488;8.480;2023-07-29T14:54:52;2.17;;;1.10;;
41629;SDS011;27322;49.488;8.480;2023-07-29T14:57:18;2.40;;;1.02;;
41629;SDS011;27322;49.488;8.480;2023-07-29T14:59:44;4.38;;;1.13;;
41629;SDS011;27322;49.488;8.480;2023-07-29T15:02:09;2.13;;;1.10;;
41629;SDS011;27322;49.488;8.480;2023-07-29T15:04:35;3.90;;;0.90;;
41629;SDS011;27322;49.488;8.480;2023-07-29T15:07:01;2.17;;;0.98;;
41629;SDS011;27322;49.488;8.480;2023-07-29T15:09:27;2.42;;;1.10;;